sensor_id;sensor_type;location;lat;lon;timestamp;P1;durP1;ratioP1;P2;durP2;ratioP2
69854;SDS011;57146;48.140;16.304;2024-03-08T00:00:42;45.55;;;15.55;;
69854;SDS011;57146;48.140;16.304;2024-03-08T00:03:09;44.70;;;15.20;;
69854;SDS011;57146;48.140;16.304;2024-03-08T00:05:36;46.10;;;15.93;;
69854;SDS011;57146;48.140;16.304;2024-03-08T00:08:04;44.08;;;15.30;;
69854;SDS011;57146;48.140;16.304;2024-03-08T00:10:31;45.20;;;15.07;;
69854;SDS011;57146;48.140;16.304;2024-03-08T00:12:58;49.90;;;16.35;;
69854;SDS011;57146;48.140;16.304;2024-03-08T00:15:26;46.00;;;15.03;;
69854;SDS011;57146;48.140;16.304;2024-03-08T00:17:53;45.75;;;15.88;;
69854;SDS011;57146;48.140;16.304;2024-03-08T00:20:20;52.22;;;16.48;;
69854;SDS011;57146;48.140;16.304;2024-03-08T00:22:47;50.53;;;17.73;;
69854;SDS011;57146;48.140;16.304;2024-03-08T00:25:14;51.42;;;17.77;;
69854;SDS011;57146;48.140;16.304;2024-03-08T00:27:41;50.87;;;17.20;;
69854;SDS011;57146;48.140;16.304;2024-03-08T00:30:09;48.03;;;16.83;;
69854;SDS011;57146;48.140;16.304;2024-03-08T00:32:36;49.85;;;17.63;;
69854;SDS011;57146;48.140;16.304;2024-03-08T00:35:04;47.88;;;16.98;;
69854;SDS011;57146;48.140;16.304;2024-03-08T00:37:31;54.55;;;16.95;;
69854;SDS011;57146;48.140;16.304;2024-03-08T00:39:59;47.63;;;16.83;;
69854;SDS011;57146;48.140;16.304;2024-03-08T00:42:26;53.25;;;16.85;;
69854;SDS011;57146;48.140;16.304;2024-03-08T00:44:53;54.25;;;17.83;;
69854;SDS011;57146;48.140;16.304;2024-03-08T00:47:20;49.78;;;16.52;;
69854;SDS011;57146;48.140;16.304;2024-03-08T00:49:47;52.97;;;18.20;;
69854;SDS011;57146;48.140;16.304;2024-03-08T00:52:16;51.07;;;17.47;;
69854;SDS011;57146;48.140;16.304;2024-03-08T00:54:43;53.55;;;17.77;;
69854;SDS011;57146;48.140;16.304;2024-03-08T00:57:10;53.13;;;17.90;;
69854;SDS011;57146;48.140;16.304;2024-03-08T00:59:38;53.90;;;18.27;;
69854;SDS011;57146;48.140;16.304;2024-03-08T01:02:05;52.08;;;18.17;;
69854;SDS011;57146;48.140;16.304;2024-03-08T01:04:32;53.77;;;17.87;;
69854;SDS011;57146;48.140;16.304;2024-03-08T01:07:00;51.15;;;17.00;;
69854;SDS011;57146;48.140;16.304;2024-03-08T01:09:27;50.78;;;17.77;;
69854;SDS011;57146;48.140;16.304;2024-03-08T01:11:54;49.85;;;16.55;;
69854;SDS011;57146;48.140;16.304;2024-03-08T01:14:22;54.30;;;18.20;;
69854;SDS011;57146;48.140;16.304;2024-03-08T01:16:51;57.00;;;18.83;;
69854;SDS011;57146;48.140;16.304;2024-03-08T01:19:18;54.05;;;17.38;;
69854;SDS011;57146;48.140;16.304;2024-03-08T01:21:45;54.38;;;17.60;;
69854;SDS011;57146;48.140;16.304;2024-03-08T01:24:12;53.00;;;18.15;;
69854;SDS011;57146;48.140;16.304;2024-03-08T01:26:39;55.47;;;18.02;;
69854;SDS011;57146;48.140;16.304;2024-03-08T01:29:06;52.70;;;17.30;;
69854;SDS011;57146;48.140;16.304;2024-03-08T01:31:33;48.08;;;16.48;;
69854;SDS011;57146;48.140;16.304;2024-03-08T01:34:00;53.20;;;17.45;;
69854;SDS011;57146;48.140;16.304;2024-03-08T01:36:27;50.58;;;16.65;;
69854;SDS011;57146;48.140;16.304;2024-03-08T01:38:54;48.75;;;16.75;;
69854;SDS011;57146;48.140;16.304;2024-03-08T01:41:22;46.63;;;17.30;;
69854;SDS011;57146;48.140;16.304;2024-03-08T01:43:48;51.45;;;16.50;;
69854;SDS011;57146;48.140;16.304;2024-03-08T01:46:17;51.15;;;17.23;;
69854;SDS011;57146;48.140;16.304;2024-03-08T01:48:46;51.67;;;16.83;;
69854;SDS011;57146;48.140;16.304;2024-03-08T01:51:13;51.22;;;16.90;;
69854;SDS011;57146;48.140;16.304;2024-03-08T01:53:40;55.17;;;18.27;;
69854;SDS011;57146;48.140;16.304;2024-03-08T01:56:10;53.92;;;17.77;;
69854;SDS011;57146;48.140;16.304;2024-03-08T01:58:37;56.42;;;18.63;;
69854;SDS011;57146;48.140;16.304;2024-03-08T02:01:05;55.67;;;18.25;;
69854;SDS011;57146;48.140;16.304;2024-03-08T02:03:32;54.13;;;17.60;;
69854;SDS011;57146;48.140;16.304;2024-03-08T02:05:59;57.37;;;18.70;;
69854;SDS011;57146;48.140;16.304;2024-03-08T02:08:26;55.60;;;18.83;;
69854;SDS011;57146;48.140;16.304;2024-03-08T02:10:53;56.53;;;18.85;;
69854;SDS011;57146;48.140;16.304;2024-03-08T02:13:21;60.03;;;18.15;;
69854;SDS011;57146;48.140;16.304;2024-03-08T02:18:23;56.30;;;18.90;;
69854;SDS011;57146;48.140;16.304;2024-03-08T02:20:57;53.13;;;17.90;;
69854;SDS011;57146;48.140;16.304;2024-03-08T02:23:26;55.33;;;18.63;;
69854;SDS011;57146;48.140;16.304;2024-03-08T02:25:54;60.90;;;18.85;;
69854;SDS011;57146;48.140;16.304;2024-03-08T02:28:23;61.30;;;18.42;;
69854;SDS011;57146;48.140;16.304;2024-03-08T02:30:51;57.77;;;18.30;;
69854;SDS011;57146;48.140;16.304;2024-03-08T02:33:18;55.80;;;18.27;;
69854;SDS011;57146;48.140;16.304;2024-03-08T02:35:46;58.03;;;18.27;;
69854;SDS011;57146;48.140;16.304;2024-03-08T02:38:15;57.65;;;18.73;;
69854;SDS011;57146;48.140;16.304;2024-03-08T02:40:44;57.42;;;18.48;;
69854;SDS011;57146;48.140;16.304;2024-03-08T02:43:13;57.77;;;18.90;;
69854;SDS011;57146;48.140;16.304;2024-03-08T02:45:42;53.55;;;18.08;;
69854;SDS011;57146;48.140;16.304;2024-03-08T02:48:09;52.75;;;16.55;;
69854;SDS011;57146;48.140;16.304;2024-03-08T02:50:36;56.08;;;18.65;;
69854;SDS011;57146;48.140;16.304;2024-03-08T02:53:04;61.40;;;19.67;;
69854;SDS011;57146;48.140;16.304;2024-03-08T02:55:31;56.63;;;18.17;;
69854;SDS011;57146;48.140;16.304;2024-03-08T02:57:59;56.92;;;18.17;;
69854;SDS011;57146;48.140;16.304;2024-03-08T03:00:26;62.83;;;19.35;;
69854;SDS011;57146;48.140;16.304;2024-03-08T03:02:54;59.53;;;19.88;;
69854;SDS011;57146;48.140;16.304;2024-03-08T03:05:21;60.55;;;20.02;;
69854;SDS011;57146;48.140;16.304;2024-03-08T03:07:48;58.10;;;19.20;;
69854;SDS011;57146;48.140;16.304;2024-03-08T03:10:19;58.15;;;19.60;;
69854;SDS011;57146;48.140;16.304;2024-03-08T03:12:46;59.92;;;18.63;;
69854;SDS011;57146;48.140;16.304;2024-03-08T03:15:14;57.83;;;18.77;;
69854;SDS011;57146;48.140;16.304;2024-03-08T03:17:49;56.60;;;18.55;;
69854;SDS011;57146;48.140;16.304;2024-03-08T03:20:18;57.93;;;18.33;;
69854;SDS011;57146;48.140;16.304;2024-03-08T03:22:46;58.65;;;19.65;;
69854;SDS011;57146;48.140;16.304;2024-03-08T03:25:13;56.97;;;19.48;;
69854;SDS011;57146;48.140;16.304;2024-03-08T03:27:40;59.00;;;18.98;;
69854;SDS011;57146;48.140;16.304;2024-03-08T03:30:07;64.45;;;19.70;;
69854;SDS011;57146;48.140;16.304;2024-03-08T03:32:35;59.57;;;19.37;;
69854;SDS011;57146;48.140;16.304;2024-03-08T03:35:02;58.55;;;19.15;;
69854;SDS011;57146;48.140;16.304;2024-03-08T03:37:29;59.17;;;18.65;;
69854;SDS011;57146;48.140;16.304;2024-03-08T03:39:56;52.40;;;17.70;;
69854;SDS011;57146;48.140;16.304;2024-03-08T03:42:23;57.45;;;20.17;;
69854;SDS011;57146;48.140;16.304;2024-03-08T03:44:50;57.73;;;18.87;;
69854;SDS011;57146;48.140;16.304;2024-03-08T03:47:17;60.85;;;19.60;;
69854;SDS011;57146;48.140;16.304;2024-03-08T03:49:44;61.95;;;19.58;;
69854;SDS011;57146;48.140;16.304;2024-03-08T03:52:11;61.03;;;19.92;;
69854;SDS011;57146;48.140;16.304;2024-03-08T03:54:38;62.00;;;20.10;;
69854;SDS011;57146;48.140;16.304;2024-03-08T03:57:05;59.03;;;19.70;;
69854;SDS011;57146;48.140;16.304;2024-03-08T03:59:32;62.25;;;19.83;;
69854;SDS011;57146;48.140;16.304;2024-03-08T04:01:59;61.45;;;19.80;;
69854;SDS011;57146;48.140;16.304;2024-03-08T04:04:26;57.70;;;18.08;;
69854;SDS011;57146;48.140;16.304;2024-03-08T04:06:53;61.55;;;20.90;;
69854;SDS011;57146;48.140;16.304;2024-03-08T04:09:20;70.20;;;23.87;;
69854;SDS011;57146;48.140;16.304;2024-03-08T04:11:48;71.22;;;24.67;;
69854;SDS011;57146;48.140;16.304;2024-03-08T04:14:16;74.05;;;24.77;;
69854;SDS011;57146;48.140;16.304;2024-03-08T04:16:43;69.57;;;23.42;;
69854;SDS011;57146;48.140;16.304;2024-03-08T04:19:10;65.97;;;22.05;;
69854;SDS011;57146;48.140;16.304;2024-03-08T04:21:37;67.20;;;21.87;;
69854;SDS011;57146;48.140;16.304;2024-03-08T04:24:04;65.07;;;21.33;;
69854;SDS011;57146;48.140;16.304;2024-03-08T04:26:31;63.92;;;20.52;;
69854;SDS011;57146;48.140;16.304;2024-03-08T04:28:58;60.88;;;19.48;;
69854;SDS011;57146;48.140;16.304;2024-03-08T04:31:25;60.70;;;20.35;;
69854;SDS011;57146;48.140;16.304;2024-03-08T04:33:52;63.30;;;20.77;;
69854;SDS011;57146;48.140;16.304;2024-03-08T04:36:20;63.72;;;20.45;;
69854;SDS011;57146;48.140;16.304;2024-03-08T04:38:47;67.45;;;20.52;;
69854;SDS011;57146;48.140;16.304;2024-03-08T04:41:14;62.00;;;20.05;;
69854;SDS011;57146;48.140;16.304;2024-03-08T04:43:41;59.90;;;19.45;;
69854;SDS011;57146;48.140;16.304;2024-03-08T04:46:09;64.83;;;19.87;;
69854;SDS011;57146;48.140;16.304;2024-03-08T04:48:36;58.00;;;19.05;;
69854;SDS011;57146;48.140;16.304;2024-03-08T04:51:04;62.15;;;19.25;;
69854;SDS011;57146;48.140;16.304;2024-03-08T04:53:31;61.35;;;19.65;;
69854;SDS011;57146;48.140;16.304;2024-03-08T04:55:58;64.30;;;20.08;;
69854;SDS011;57146;48.140;16.304;2024-03-08T04:58:26;58.53;;;18.77;;
69854;SDS011;57146;48.140;16.304;2024-03-08T05:00:53;59.63;;;18.80;;
69854;SDS011;57146;48.140;16.304;2024-03-08T05:03:20;54.53;;;18.88;;
69854;SDS011;57146;48.140;16.304;2024-03-08T05:05:47;58.70;;;18.30;;
69854;SDS011;57146;48.140;16.304;2024-03-08T05:08:14;57.33;;;18.58;;
69854;SDS011;57146;48.140;16.304;2024-03-08T05:10:41;63.27;;;19.27;;
69854;SDS011;57146;48.140;16.304;2024-03-08T05:13:08;56.85;;;17.80;;
69854;SDS011;57146;48.140;16.304;2024-03-08T05:15:36;57.97;;;19.27;;
69854;SDS011;57146;48.140;16.304;2024-03-08T05:18:03;59.85;;;19.27;;
69854;SDS011;57146;48.140;16.304;2024-03-08T05:20:30;59.70;;;19.45;;
69854;SDS011;57146;48.140;16.304;2024-03-08T05:22:57;63.73;;;20.00;;
69854;SDS011;57146;48.140;16.304;2024-03-08T05:25:24;58.10;;;19.00;;
69854;SDS011;57146;48.140;16.304;2024-03-08T05:27:51;61.58;;;19.55;;
69854;SDS011;57146;48.140;16.304;2024-03-08T05:30:18;61.90;;;19.10;;
69854;SDS011;57146;48.140;16.304;2024-03-08T05:32:45;60.45;;;18.90;;
69854;SDS011;57146;48.140;16.304;2024-03-08T05:35:12;57.20;;;19.13;;
69854;SDS011;57146;48.140;16.304;2024-03-08T05:37:39;63.90;;;19.77;;
69854;SDS011;57146;48.140;16.304;2024-03-08T05:40:06;60.47;;;19.80;;
69854;SDS011;57146;48.140;16.304;2024-03-08T05:42:37;61.75;;;19.15;;
69854;SDS011;57146;48.140;16.304;2024-03-08T05:45:04;60.40;;;19.70;;
69854;SDS011;57146;48.140;16.304;2024-03-08T05:47:32;62.27;;;19.87;;
69854;SDS011;57146;48.140;16.304;2024-03-08T05:49:59;59.88;;;19.25;;
69854;SDS011;57146;48.140;16.304;2024-03-08T05:52:26;57.88;;;19.48;;
69854;SDS011;57146;48.140;16.304;2024-03-08T05:54:53;62.75;;;19.88;;
69854;SDS011;57146;48.140;16.304;2024-03-08T05:57:20;60.03;;;20.35;;
69854;SDS011;57146;48.140;16.304;2024-03-08T05:59:47;63.67;;;18.93;;
69854;SDS011;57146;48.140;16.304;2024-03-08T06:02:14;60.75;;;19.20;;
69854;SDS011;57146;48.140;16.304;2024-03-08T06:04:41;62.83;;;20.20;;
69854;SDS011;57146;48.140;16.304;2024-03-08T06:07:08;63.03;;;20.30;;
69854;SDS011;57146;48.140;16.304;2024-03-08T06:09:35;65.63;;;20.25;;
69854;SDS011;57146;48.140;16.304;2024-03-08T06:12:02;58.87;;;19.13;;
69854;SDS011;57146;48.140;16.304;2024-03-08T06:14:30;59.85;;;19.75;;
69854;SDS011;57146;48.140;16.304;2024-03-08T06:16:57;59.25;;;19.02;;
69854;SDS011;57146;48.140;16.304;2024-03-08T06:19:25;62.70;;;20.00;;
69854;SDS011;57146;48.140;16.304;2024-03-08T06:21:51;58.97;;;19.60;;
69854;SDS011;57146;48.140;16.304;2024-03-08T06:24:19;65.27;;;19.67;;
69854;SDS011;57146;48.140;16.304;2024-03-08T06:26:46;62.05;;;19.58;;
69854;SDS011;57146;48.140;16.304;2024-03-08T06:29:13;62.80;;;20.80;;
69854;SDS011;57146;48.140;16.304;2024-03-08T06:31:40;60.97;;;19.95;;
69854;SDS011;57146;48.140;16.304;2024-03-08T06:34:07;64.57;;;20.10;;
69854;SDS011;57146;48.140;16.304;2024-03-08T06:36:35;60.30;;;19.30;;
69854;SDS011;57146;48.140;16.304;2024-03-08T06:39:02;58.05;;;19.50;;
69854;SDS011;57146;48.140;16.304;2024-03-08T06:41:29;60.25;;;20.90;;
69854;SDS011;57146;48.140;16.304;2024-03-08T06:43:56;62.63;;;19.65;;
69854;SDS011;57146;48.140;16.304;2024-03-08T06:46:23;65.18;;;20.80;;
69854;SDS011;57146;48.140;16.304;2024-03-08T06:48:50;59.87;;;20.27;;
69854;SDS011;57146;48.140;16.304;2024-03-08T06:51:17;61.10;;;19.50;;
69854;SDS011;57146;48.140;16.304;2024-03-08T06:53:45;62.47;;;19.75;;
69854;SDS011;57146;48.140;16.304;2024-03-08T06:56:13;56.75;;;18.73;;
69854;SDS011;57146;48.140;16.304;2024-03-08T06:58:40;54.28;;;18.90;;
69854;SDS011;57146;48.140;16.304;2024-03-08T07:01:07;56.70;;;18.73;;
69854;SDS011;57146;48.140;16.304;2024-03-08T07:03:35;57.67;;;18.30;;
69854;SDS011;57146;48.140;16.304;2024-03-08T07:06:02;54.80;;;18.38;;
69854;SDS011;57146;48.140;16.304;2024-03-08T07:08:30;61.47;;;20.00;;
69854;SDS011;57146;48.140;16.304;2024-03-08T07:10:57;57.05;;;18.98;;
69854;SDS011;57146;48.140;16.304;2024-03-08T07:13:26;58.90;;;19.20;;
69854;SDS011;57146;48.140;16.304;2024-03-08T07:15:53;61.10;;;19.63;;
69854;SDS011;57146;48.140;16.304;2024-03-08T07:18:20;56.25;;;18.58;;
69854;SDS011;57146;48.140;16.304;2024-03-08T07:20:47;60.08;;;19.77;;
69854;SDS011;57146;48.140;16.304;2024-03-08T07:23:14;63.72;;;19.45;;
69854;SDS011;57146;48.140;16.304;2024-03-08T07:25:41;62.17;;;20.07;;
69854;SDS011;57146;48.140;16.304;2024-03-08T07:28:08;58.90;;;19.17;;
69854;SDS011;57146;48.140;16.304;2024-03-08T07:30:39;60.30;;;20.13;;
69854;SDS011;57146;48.140;16.304;2024-03-08T07:33:06;58.70;;;19.35;;
69854;SDS011;57146;48.140;16.304;2024-03-08T07:35:34;61.10;;;19.50;;
69854;SDS011;57146;48.140;16.304;2024-03-08T07:38:01;61.57;;;19.57;;
69854;SDS011;57146;48.140;16.304;2024-03-08T07:40:28;60.65;;;19.58;;
69854;SDS011;57146;48.140;16.304;2024-03-08T07:42:55;60.65;;;20.40;;
69854;SDS011;57146;48.140;16.304;2024-03-08T07:45:22;63.83;;;20.80;;
69854;SDS011;57146;48.140;16.304;2024-03-08T07:47:49;62.00;;;18.95;;
69854;SDS011;57146;48.140;16.304;2024-03-08T07:50:17;60.53;;;19.50;;
69854;SDS011;57146;48.140;16.304;2024-03-08T07:52:44;64.22;;;19.73;;
69854;SDS011;57146;48.140;16.304;2024-03-08T07:55:11;61.00;;;19.90;;
69854;SDS011;57146;48.140;16.304;2024-03-08T07:57:39;65.72;;;20.98;;
69854;SDS011;57146;48.140;16.304;2024-03-08T08:00:06;63.33;;;20.48;;
69854;SDS011;57146;48.140;16.304;2024-03-08T08:02:34;67.40;;;21.10;;
69854;SDS011;57146;48.140;16.304;2024-03-08T08:05:06;67.18;;;21.95;;
69854;SDS011;57146;48.140;16.304;2024-03-08T08:07:33;67.53;;;21.48;;
69854;SDS011;57146;48.140;16.304;2024-03-08T08:10:00;72.60;;;22.52;;
69854;SDS011;57146;48.140;16.304;2024-03-08T08:12:27;75.00;;;22.02;;
69854;SDS011;57146;48.140;16.304;2024-03-08T08:14:54;70.37;;;20.97;;
69854;SDS011;57146;48.140;16.304;2024-03-08T08:17:21;64.65;;;20.02;;
69854;SDS011;57146;48.140;16.304;2024-03-08T08:19:48;69.68;;;20.15;;
69854;SDS011;57146;48.140;16.304;2024-03-08T08:22:15;69.30;;;19.92;;
69854;SDS011;57146;48.140;16.304;2024-03-08T08:24:42;65.80;;;19.83;;
69854;SDS011;57146;48.140;16.304;2024-03-08T08:27:09;63.90;;;20.70;;
69854;SDS011;57146;48.140;16.304;2024-03-08T08:29:36;64.55;;;20.02;;
69854;SDS011;57146;48.140;16.304;2024-03-08T08:32:03;67.25;;;20.63;;
69854;SDS011;57146;48.140;16.304;2024-03-08T08:34:30;64.55;;;19.77;;
69854;SDS011;57146;48.140;16.304;2024-03-08T08:36:57;64.15;;;19.10;;
69854;SDS011;57146;48.140;16.304;2024-03-08T08:39:24;69.30;;;20.17;;
69854;SDS011;57146;48.140;16.304;2024-03-08T08:41:51;69.65;;;19.85;;
69854;SDS011;57146;48.140;16.304;2024-03-08T08:44:21;65.75;;;19.63;;
69854;SDS011;57146;48.140;16.304;2024-03-08T08:46:48;66.25;;;19.70;;
69854;SDS011;57146;48.140;16.304;2024-03-08T08:49:18;60.67;;;19.35;;
69854;SDS011;57146;48.140;16.304;2024-03-08T08:51:50;70.03;;;20.57;;
69854;SDS011;57146;48.140;16.304;2024-03-08T08:54:20;66.88;;;18.35;;
69854;SDS011;57146;48.140;16.304;2024-03-08T08:56:47;64.28;;;19.25;;
69854;SDS011;57146;48.140;16.304;2024-03-08T08:59:14;68.93;;;20.25;;
69854;SDS011;57146;48.140;16.304;2024-03-08T09:01:43;72.75;;;22.63;;
69854;SDS011;57146;48.140;16.304;2024-03-08T09:04:10;66.90;;;19.47;;
69854;SDS011;57146;48.140;16.304;2024-03-08T09:06:37;74.93;;;21.10;;
69854;SDS011;57146;48.140;16.304;2024-03-08T09:09:04;76.20;;;21.88;;
69854;SDS011;57146;48.140;16.304;2024-03-08T09:11:32;76.53;;;21.52;;
69854;SDS011;57146;48.140;16.304;2024-03-08T09:13:59;77.05;;;20.90;;
69854;SDS011;57146;48.140;16.304;2024-03-08T09:16:27;76.17;;;21.27;;
69854;SDS011;57146;48.140;16.304;2024-03-08T09:18:54;75.10;;;21.38;;
69854;SDS011;57146;48.140;16.304;2024-03-08T09:21:21;74.20;;;21.33;;
69854;SDS011;57146;48.140;16.304;2024-03-08T09:23:49;71.40;;;20.92;;
69854;SDS011;57146;48.140;16.304;2024-03-08T09:26:16;76.03;;;20.67;;
69854;SDS011;57146;48.140;16.304;2024-03-08T09:28:54;74.97;;;21.80;;
69854;SDS011;57146;48.140;16.304;2024-03-08T09:31:21;85.47;;;23.13;;
69854;SDS011;57146;48.140;16.304;2024-03-08T09:33:48;81.38;;;22.83;;
69854;SDS011;57146;48.140;16.304;2024-03-08T09:36:15;80.30;;;22.05;;
69854;SDS011;57146;48.140;16.304;2024-03-08T09:38:43;76.53;;;21.40;;
69854;SDS011;57146;48.140;16.304;2024-03-08T09:41:10;78.47;;;19.87;;
69854;SDS011;57146;48.140;16.304;2024-03-08T09:43:37;77.22;;;19.90;;
69854;SDS011;57146;48.140;16.304;2024-03-08T09:46:04;79.90;;;21.58;;
69854;SDS011;57146;48.140;16.304;2024-03-08T09:48:34;79.38;;;22.30;;
69854;SDS011;57146;48.140;16.304;2024-03-08T09:51:02;84.45;;;22.13;;
69854;SDS011;57146;48.140;16.304;2024-03-08T09:53:30;80.07;;;22.67;;
69854;SDS011;57146;48.140;16.304;2024-03-08T09:55:57;81.72;;;20.52;;
69854;SDS011;57146;48.140;16.304;2024-03-08T09:58:24;82.60;;;21.77;;
69854;SDS011;57146;48.140;16.304;2024-03-08T10:00:51;85.90;;;22.20;;
69854;SDS011;57146;48.140;16.304;2024-03-08T10:03:21;85.05;;;21.77;;
69854;SDS011;57146;48.140;16.304;2024-03-08T10:05:48;79.37;;;19.93;;
69854;SDS011;57146;48.140;16.304;2024-03-08T10:08:15;73.55;;;18.55;;
69854;SDS011;57146;48.140;16.304;2024-03-08T10:10:42;67.32;;;18.13;;
69854;SDS011;57146;48.140;16.304;2024-03-08T10:13:10;79.50;;;20.65;;
69854;SDS011;57146;48.140;16.304;2024-03-08T10:15:37;80.85;;;20.30;;
69854;SDS011;57146;48.140;16.304;2024-03-08T10:18:06;69.43;;;18.93;;
69854;SDS011;57146;48.140;16.304;2024-03-08T10:20:34;71.97;;;18.95;;
69854;SDS011;57146;48.140;16.304;2024-03-08T10:23:01;73.03;;;19.45;;
69854;SDS011;57146;48.140;16.304;2024-03-08T10:25:37;63.55;;;16.75;;
69854;SDS011;57146;48.140;16.304;2024-03-08T10:28:04;63.53;;;17.23;;
69854;SDS011;57146;48.140;16.304;2024-03-08T10:30:32;60.13;;;16.53;;
69854;SDS011;57146;48.140;16.304;2024-03-08T10:32:59;49.47;;;14.75;;
69854;SDS011;57146;48.140;16.304;2024-03-08T10:35:26;56.30;;;14.90;;
69854;SDS011;57146;48.140;16.304;2024-03-08T10:37:53;48.88;;;14.05;;
69854;SDS011;57146;48.140;16.304;2024-03-08T10:40:24;44.83;;;13.52;;
69854;SDS011;57146;48.140;16.304;2024-03-08T10:42:53;47.87;;;14.50;;
69854;SDS011;57146;48.140;16.304;2024-03-08T10:45:31;44.72;;;14.10;;
69854;SDS011;57146;48.140;16.304;2024-03-08T10:50:47;45.20;;;13.57;;
69854;SDS011;57146;48.140;16.304;2024-03-08T10:53:15;46.00;;;13.73;;
69854;SDS011;57146;48.140;16.304;2024-03-08T10:55:44;43.80;;;13.03;;
69854;SDS011;57146;48.140;16.304;2024-03-08T10:58:13;41.72;;;13.68;;
69854;SDS011;57146;48.140;16.304;2024-03-08T11:00:41;38.38;;;12.35;;
69854;SDS011;57146;48.140;16.304;2024-03-08T11:03:09;38.33;;;12.23;;
69854;SDS011;57146;48.140;16.304;2024-03-08T11:06:07;35.72;;;10.85;;
69854;SDS011;57146;48.140;16.304;2024-03-08T11:08:37;35.43;;;11.27;;
69854;SDS011;57146;48.140;16.304;2024-03-08T11:11:05;30.98;;;9.80;;
69854;SDS011;57146;48.140;16.304;2024-03-08T11:14:01;30.15;;;9.85;;
69854;SDS011;57146;48.140;16.304;2024-03-08T11:18:59;29.10;;;9.10;;
69854;SDS011;57146;48.140;16.304;2024-03-08T11:21:28;26.50;;;8.70;;
69854;SDS011;57146;48.140;16.304;2024-03-08T11:23:59;23.42;;;7.32;;
69854;SDS011;57146;48.140;16.304;2024-03-08T11:26:27;22.90;;;7.13;;
69854;SDS011;57146;48.140;16.304;2024-03-08T11:34:45;18.27;;;6.33;;
69854;SDS011;57146;48.140;16.304;2024-03-08T11:37:14;21.23;;;6.97;;
69854;SDS011;57146;48.140;16.304;2024-03-08T11:39:52;20.42;;;6.90;;
69854;SDS011;57146;48.140;16.304;2024-03-08T11:42:20;22.73;;;6.75;;
69854;SDS011;57146;48.140;16.304;2024-03-08T11:44:47;18.60;;;6.53;;
69854;SDS011;57146;48.140;16.304;2024-03-08T11:47:17;17.67;;;6.30;;
69854;SDS011;57146;48.140;16.304;2024-03-08T11:49:44;18.80;;;6.28;;
69854;SDS011;57146;48.140;16.304;2024-03-08T11:52:12;17.58;;;6.03;;
69854;SDS011;57146;48.140;16.304;2024-03-08T11:54:40;18.73;;;6.28;;
69854;SDS011;57146;48.140;16.304;2024-03-08T11:57:09;19.75;;;6.93;;
69854;SDS011;57146;48.140;16.304;2024-03-08T11:59:37;16.70;;;5.83;;
69854;SDS011;57146;48.140;16.304;2024-03-08T12:02:04;20.58;;;6.28;;
69854;SDS011;57146;48.140;16.304;2024-03-08T12:04:32;19.42;;;6.75;;
69854;SDS011;57146;48.140;16.304;2024-03-08T12:07:00;19.08;;;6.00;;
69854;SDS011;57146;48.140;16.304;2024-03-08T12:09:27;14.45;;;5.30;;
69854;SDS011;57146;48.140;16.304;2024-03-08T12:11:54;20.37;;;6.57;;
69854;SDS011;57146;48.140;16.304;2024-03-08T12:14:21;19.48;;;7.22;;
69854;SDS011;57146;48.140;16.304;2024-03-08T12:16:50;29.23;;;7.85;;
69854;SDS011;57146;48.140;16.304;2024-03-08T12:19:18;20.60;;;7.05;;
69854;SDS011;57146;48.140;16.304;2024-03-08T12:21:45;19.55;;;7.07;;
69854;SDS011;57146;48.140;16.304;2024-03-08T12:24:12;21.93;;;7.77;;
69854;SDS011;57146;48.140;16.304;2024-03-08T12:26:42;20.33;;;7.55;;
69854;SDS011;57146;48.140;16.304;2024-03-08T12:29:21;21.67;;;7.80;;
69854;SDS011;57146;48.140;16.304;2024-03-08T12:31:52;21.55;;;7.82;;
69854;SDS011;57146;48.140;16.304;2024-03-08T12:34:22;22.88;;;7.82;;
69854;SDS011;57146;48.140;16.304;2024-03-08T12:36:50;20.40;;;7.10;;
69854;SDS011;57146;48.140;16.304;2024-03-08T12:39:18;18.25;;;6.53;;
69854;SDS011;57146;48.140;16.304;2024-03-08T12:41:46;23.20;;;7.90;;
69854;SDS011;57146;48.140;16.304;2024-03-08T12:44:13;19.90;;;7.15;;
69854;SDS011;57146;48.140;16.304;2024-03-08T12:46:40;19.60;;;7.07;;
69854;SDS011;57146;48.140;16.304;2024-03-08T12:49:07;20.40;;;8.03;;
69854;SDS011;57146;48.140;16.304;2024-03-08T12:51:35;20.88;;;8.07;;
69854;SDS011;57146;48.140;16.304;2024-03-08T12:54:03;22.17;;;7.97;;
69854;SDS011;57146;48.140;16.304;2024-03-08T12:56:34;19.02;;;7.00;;
69854;SDS011;57146;48.140;16.304;2024-03-08T12:59:05;19.42;;;7.07;;
69854;SDS011;57146;48.140;16.304;2024-03-08T13:01:34;18.90;;;7.13;;
69854;SDS011;57146;48.140;16.304;2024-03-08T13:04:01;18.52;;;6.88;;
69854;SDS011;57146;48.140;16.304;2024-03-08T13:06:28;16.70;;;6.20;;
69854;SDS011;57146;48.140;16.304;2024-03-08T13:08:56;19.45;;;6.18;;
69854;SDS011;57146;48.140;16.304;2024-03-08T13:11:24;18.38;;;6.47;;
69854;SDS011;57146;48.140;16.304;2024-03-08T13:13:52;17.17;;;5.80;;
69854;SDS011;57146;48.140;16.304;2024-03-08T13:16:43;17.65;;;6.07;;
69854;SDS011;57146;48.140;16.304;2024-03-08T13:19:09;18.80;;;6.50;;
69854;SDS011;57146;48.140;16.304;2024-03-08T13:21:37;20.55;;;7.30;;
69854;SDS011;57146;48.140;16.304;2024-03-08T13:24:03;20.50;;;7.40;;
69854;SDS011;57146;48.140;16.304;2024-03-08T13:26:31;19.37;;;7.33;;
69854;SDS011;57146;48.140;16.304;2024-03-08T13:28:58;20.38;;;6.43;;
69854;SDS011;57146;48.140;16.304;2024-03-08T13:31:26;18.60;;;6.18;;
69854;SDS011;57146;48.140;16.304;2024-03-08T13:33:54;17.75;;;5.88;;
69854;SDS011;57146;48.140;16.304;2024-03-08T13:36:24;17.25;;;6.22;;
69854;SDS011;57146;48.140;16.304;2024-03-08T13:38:52;16.10;;;5.70;;
69854;SDS011;57146;48.140;16.304;2024-03-08T13:41:18;18.60;;;7.03;;
69854;SDS011;57146;48.140;16.304;2024-03-08T13:43:46;18.20;;;6.55;;
69854;SDS011;57146;48.140;16.304;2024-03-08T13:46:14;16.83;;;6.32;;
69854;SDS011;57146;48.140;16.304;2024-03-08T13:48:41;15.35;;;5.53;;
69854;SDS011;57146;48.140;16.304;2024-03-08T13:51:08;14.77;;;5.50;;
69854;SDS011;57146;48.140;16.304;2024-03-08T13:53:35;15.45;;;4.90;;
69854;SDS011;57146;48.140;16.304;2024-03-08T13:56:03;14.93;;;5.00;;
69854;SDS011;57146;48.140;16.304;2024-03-08T13:58:30;15.77;;;5.20;;
69854;SDS011;57146;48.140;16.304;2024-03-08T14:00:57;15.27;;;5.35;;
69854;SDS011;57146;48.140;16.304;2024-03-08T14:03:24;15.10;;;5.10;;
69854;SDS011;57146;48.140;16.304;2024-03-08T14:05:51;14.30;;;5.30;;
69854;SDS011;57146;48.140;16.304;2024-03-08T14:08:18;16.52;;;5.95;;
69854;SDS011;57146;48.140;16.304;2024-03-08T14:10:45;17.25;;;6.32;;
69854;SDS011;57146;48.140;16.304;2024-03-08T14:13:12;18.45;;;6.55;;
69854;SDS011;57146;48.140;16.304;2024-03-08T14:15:39;19.67;;;6.90;;
69854;SDS011;57146;48.140;16.304;2024-03-08T14:18:06;15.88;;;6.32;;
69854;SDS011;57146;48.140;16.304;2024-03-08T14:20:34;19.10;;;6.75;;
69854;SDS011;57146;48.140;16.304;2024-03-08T14:23:01;16.80;;;6.55;;
69854;SDS011;57146;48.140;16.304;2024-03-08T14:25:28;18.67;;;6.63;;
69854;SDS011;57146;48.140;16.304;2024-03-08T14:27:55;19.43;;;6.30;;